Currently 57°F in De Luz, California, USA
57°F
58°F / 55°F
1 mph N
0.00"
Monday, December 10, 2018 3:25 AM PST

De Luz, California Weather Summary
Last 36 Hours

Temperature Winds Hourly Humidity Dewpoint
Time Report Norm Report Norm Max Gusts Precip. Rpt. Norm Rpt. Norm Pressure
1Mon 03:25 AM  57.0°F  51°F  1 mph N  calm  1 mph  0.00"  56%  63%  41°F  39°F  30.08"
Mon 03:00 AM  56.5°F  52°F  1 mph N  calm  8 mph  0.00"  58%  63%  41°F  39°F  30.07"
Mon 02:00 AM  58.0°F  52°F  1 mph NE  calm  8 mph  0.00"  55%  63%  41°F  39°F  30.08"
2Mon 01:34 AM  58.1°F  52°F  2 mph N  calm  8 mph  ----  55%  63%  41°F  39°F  30.08"
Mon 01:00 AM  55.4°F  52°F  1 mph N  calm  4 mph  0.00"  62%  63%  42°F  40°F  30.09"
3Mon 12:52 AM  55.1°F  52°F  1 mph N  calm  3 mph  ----  63%  64%  42°F  40°F  30.10"
Mon 12:00 AM  57.6°F  52°F  calm  calm  6 mph  0.00"  56%  64%  41°F  40°F  30.09"
Sun 11:01 PM  58.3°F  53°F  1 mph NE  calm  5 mph  0.00"  55%  64%  42°F  41°F  30.13"
Sun 10:00 PM  58.7°F  53°F  1 mph NE  calm  5 mph  0.00"  57%  64%  43°F  41°F  30.14"
Sun 09:01 PM  59.3°F  54°F  1 mph NE  calm  5 mph  0.00"  54%  65%  42°F  42°F  30.15"
Sun 08:00 PM  59.2°F  54°F  N/A  calm  N/A  0.00"  56%  65%  43°F  42°F  30.16"
Sun 07:00 PM  61.3°F  54°F  N/A  calm  N/A  0.00"  52%  66%  43°F  43°F  30.15"
Sun 06:00 PM  62.3°F  55°F  calm  calm  2 mph  0.00"  50%  65%  43°F  43°F  30.15"
Sun 05:00 PM  61.6°F  58°F  calm  calm  none  0.00"  61%  61%  48°F  44°F  30.15"
Sun 04:00 PM  66.0°F  62°F  calm  1 mph  2 mph  0.00"  57%  53%  50°F  44°F  30.14"
Sun 03:00 PM  69.6°F  64°F  calm  1 mph  none  0.00"  48%  48%  48°F  44°F  30.13"
Sun 02:00 PM  70.1°F  66°F  calm  1 mph  6 mph  0.00"  38%  45%  42°F  43°F  30.13"
Sun 01:00 PM  70.8°F  66°F  1 mph N  1 mph  8 mph  0.00"  39%  44%  44°F  42°F  30.14"
Sun 12:00 PM  69.6°F  65°F  1 mph N  1 mph  5 mph  0.00"  45%  45%  47°F  42°F  30.18"
Sun 11:00 AM  66.9°F  63°F  2 mph N  1 mph  5 mph  0.00"  46%  48%  45°F  42°F  30.22"
Sun 10:01 AM  63.5°F  60°F  1 mph NE  calm  7 mph  0.00"  53%  51%  45°F  42°F  30.25"
Sun 09:00 AM  59.8°F  57°F  2 mph N  calm  7 mph  0.00"  58%  56%  44°F  41°F  30.26"
Sun 08:00 AM  55.9°F  53°F  1 mph NE  calm  8 mph  0.00"  65%  60%  44°F  39°F  30.23"
Sun 07:00 AM  54.8°F  51°F  1 mph NE  calm  5 mph  0.00"  66%  61%  43°F  38°F  30.22"
Sun 06:00 AM  54.8°F  51°F  1 mph NE  calm  11 mph  0.00"  67%  61%  44°F  38°F  30.23"
Sun 05:00 AM  54.5°F  51°F  1 mph NE  calm  4 mph  0.00"  68%  62%  44°F  38°F  30.21"
Sun 04:00 AM  53.8°F  52°F  1 mph NW  calm  6 mph  0.00"  71%  62%  44°F  39°F  30.21"
Sun 03:00 AM  54.8°F  52°F  1 mph NE  calm  5 mph  0.00"  69%  62%  44°F  39°F  30.22"
Sun 02:00 AM  54.2°F  52°F  calm  calm  3 mph  0.00"  72%  62%  45°F  39°F  30.22"
Sun 01:00 AM  55.3°F  52°F  1 mph NE  calm  4 mph  0.00"  70%  63%  45°F  40°F  30.22"
Sun 12:00 AM  56.3°F  53°F  calm  calm  2 mph  0.00"  66%  63%  45°F  40°F  30.23"
Sat 11:01 PM  57.6°F  53°F  calm  calm  none  0.00"  63%  64%  45°F  41°F  30.24"
Sat 10:00 PM  57.5°F  53°F  calm  calm  5 mph  0.00"  65%  64%  45°F  41°F  30.24"
Sat 09:00 PM  54.4°F  54°F  calm  calm  2 mph  0.00"  78%  64%  47°F  42°F  30.22"
Sat 08:00 PM  54.1°F  54°F  calm  calm  none  0.00"  82%  65%  49°F  42°F  30.21"
Sat 07:00 PM  55.1°F  55°F  calm  calm  none  0.00"  81%  65%  49°F  43°F  30.20"
Sat 06:00 PM  56.6°F  56°F  calm  calm  2 mph  0.00"  77%  64%  49°F  43°F  30.18"
Sat 05:00 PM  61.0°F  58°F  1 mph SW  calm  6 mph  0.00"  66%  60%  49°F  44°F  30.20"
Sat 04:00 PM  64.5°F  62°F  2 mph S  1 mph  9 mph  0.00"  59%  53%  49°F  44°F  30.17"

  1. Current weather data. No green row appears if the current weather data is also the high or low for the current day.
  2. High temperature for the current day.
  3. Low temperature for the current day.

The De Luz, California weather pages are a service of WeatherCurrents. De Luz is located west of the Temecula Valley and north of Fallbrook, on the Santa Rosa Plateau, in southwestern Riverside County, California.
Copyright ©Mon Dec 10 03:26:20 PST 2018  WeatherCurrents. All rights reserved. - Submit questions and comments - Privacy Policy

This page automatically refreshes every 10 minutes.